sensor_id;sensor_type;location;lat;lon;timestamp;P1;durP1;ratioP1;P2;durP2;ratioP2
66400;SDS011;53211;45.040;38.788;2022-11-15T00:02:44;505.25;;;223.70;;
66400;SDS011;53211;45.040;38.788;2022-11-15T00:05:28;442.48;;;103.57;;
66400;SDS011;53211;45.040;38.788;2022-11-15T00:08:12;539.50;;;220.67;;
66400;SDS011;53211;45.040;38.788;2022-11-15T00:10:57;526.03;;;227.55;;
66400;SDS011;53211;45.040;38.788;2022-11-15T00:13:43;479.63;;;188.40;;
66400;SDS011;53211;45.040;38.788;2022-11-15T00:16:27;507.58;;;232.93;;
66400;SDS011;53211;45.040;38.788;2022-11-15T00:19:12;506.03;;;229.80;;
66400;SDS011;53211;45.040;38.788;2022-11-15T00:21:56;477.13;;;166.17;;
66400;SDS011;53211;45.040;38.788;2022-11-15T00:27:24;451.20;;;112.03;;
66400;SDS011;53211;45.040;38.788;2022-11-15T00:30:09;480.83;;;178.68;;
66400;SDS011;53211;45.040;38.788;2022-11-15T00:32:54;528.05;;;231.15;;
66400;SDS011;53211;45.040;38.788;2022-11-15T00:35:38;525.03;;;225.52;;
66400;SDS011;53211;45.040;38.788;2022-11-15T00:38:22;518.60;;;223.40;;
66400;SDS011;53211;45.040;38.788;2022-11-15T00:43:52;523.40;;;228.40;;
66400;SDS011;53211;45.040;38.788;2022-11-15T00:46:36;530.95;;;215.45;;
66400;SDS011;53211;45.040;38.788;2022-11-15T00:49:21;527.87;;;227.27;;
66400;SDS011;53211;45.040;38.788;2022-11-15T00:52:05;455.40;;;134.50;;
66400;SDS011;53211;45.040;38.788;2022-11-15T00:54:49;465.00;;;151.80;;
66400;SDS011;53211;45.040;38.788;2022-11-15T00:57:33;448.10;;;128.50;;
66400;SDS011;53211;45.040;38.788;2022-11-15T01:00:18;545.75;;;202.35;;
66400;SDS011;53211;45.040;38.788;2022-11-15T01:03:02;557.50;;;192.40;;
66400;SDS011;53211;45.040;38.788;2022-11-15T01:05:46;564.20;;;186.75;;
66400;SDS011;53211;45.040;38.788;2022-11-15T01:08:31;562.30;;;192.20;;
66400;SDS011;53211;45.040;38.788;2022-11-15T01:11:15;559.23;;;197.83;;
66400;SDS011;53211;45.040;38.788;2022-11-15T01:14:00;508.27;;;156.82;;
66400;SDS011;53211;45.040;38.788;2022-11-15T01:16:44;541.00;;;211.45;;
66400;SDS011;53211;45.040;38.788;2022-11-15T01:19:29;519.25;;;231.25;;
66400;SDS011;53211;45.040;38.788;2022-11-15T01:22:13;534.00;;;216.65;;
66400;SDS011;53211;45.040;38.788;2022-11-15T01:24:58;540.10;;;207.40;;
66400;SDS011;53211;45.040;38.788;2022-11-15T01:27:43;541.75;;;210.00;;
66400;SDS011;53211;45.040;38.788;2022-11-15T01:30:27;516.27;;;190.83;;
66400;SDS011;53211;45.040;38.788;2022-11-15T01:33:11;489.65;;;190.70;;
66400;SDS011;53211;45.040;38.788;2022-11-15T01:35:55;512.22;;;202.68;;
66400;SDS011;53211;45.040;38.788;2022-11-15T01:38:40;561.90;;;182.95;;
66400;SDS011;53211;45.040;38.788;2022-11-15T01:41:29;578.00;;;170.90;;
66400;SDS011;53211;45.040;38.788;2022-11-15T01:50:03;539.70;;;204.90;;
66400;SDS011;53211;45.040;38.788;2022-11-15T01:52:51;537.75;;;199.98;;
66400;SDS011;53211;45.040;38.788;2022-11-15T01:55:36;543.72;;;201.00;;
66400;SDS011;53211;45.040;38.788;2022-11-15T01:58:21;555.33;;;192.70;;
66400;SDS011;53211;45.040;38.788;2022-11-15T02:01:05;552.10;;;198.10;;
66400;SDS011;53211;45.040;38.788;2022-11-15T02:03:55;560.17;;;183.52;;
66400;SDS011;53211;45.040;38.788;2022-11-15T02:06:45;555.23;;;187.47;;
66400;SDS011;53211;45.040;38.788;2022-11-15T02:09:32;557.50;;;187.25;;
66400;SDS011;53211;45.040;38.788;2022-11-15T02:12:18;548.87;;;194.50;;
66400;SDS011;53211;45.040;38.788;2022-11-15T02:15:04;574.25;;;176.75;;
66400;SDS011;53211;45.040;38.788;2022-11-15T02:17:54;571.35;;;180.20;;
66400;SDS011;53211;45.040;38.788;2022-11-15T02:21:11;569.77;;;176.87;;
66400;SDS011;53211;45.040;38.788;2022-11-15T02:27:23;568.70;;;178.35;;
66400;SDS011;53211;45.040;38.788;2022-11-15T02:33:28;530.85;;;206.30;;
66400;SDS011;53211;45.040;38.788;2022-11-15T02:42:32;564.17;;;186.18;;
66400;SDS011;53211;45.040;38.788;2022-11-15T02:45:40;560.87;;;182.80;;
66400;SDS011;53211;45.040;38.788;2022-11-15T02:48:32;561.70;;;183.20;;
66400;SDS011;53211;45.040;38.788;2022-11-15T02:51:17;560.90;;;186.00;;
66400;SDS011;53211;45.040;38.788;2022-11-15T02:54:02;560.60;;;185.15;;
66400;SDS011;53211;45.040;38.788;2022-11-15T02:56:47;560.30;;;183.82;;
66400;SDS011;53211;45.040;38.788;2022-11-15T02:59:41;557.10;;;187.03;;
66400;SDS011;53211;45.040;38.788;2022-11-15T03:02:32;556.23;;;188.67;;
66400;SDS011;53211;45.040;38.788;2022-11-15T03:11:33;515.58;;;219.70;;
66400;SDS011;53211;45.040;38.788;2022-11-15T03:14:25;515.75;;;219.50;;
66400;SDS011;53211;45.040;38.788;2022-11-15T03:17:23;522.40;;;216.20;;
66400;SDS011;53211;45.040;38.788;2022-11-15T03:20:14;527.67;;;210.53;;
66400;SDS011;53211;45.040;38.788;2022-11-15T03:23:01;547.25;;;192.80;;
66400;SDS011;53211;45.040;38.788;2022-11-15T03:25:49;538.25;;;196.57;;
66400;SDS011;53211;45.040;38.788;2022-11-15T03:28:38;545.83;;;194.70;;
66400;SDS011;53211;45.040;38.788;2022-11-15T03:31:28;567.93;;;176.30;;
66400;SDS011;53211;45.040;38.788;2022-11-15T03:40:29;524.17;;;214.57;;
66400;SDS011;53211;45.040;38.788;2022-11-15T03:46:37;532.80;;;212.30;;
66400;SDS011;53211;45.040;38.788;2022-11-15T03:49:44;515.60;;;221.80;;
66400;SDS011;53211;45.040;38.788;2022-11-15T03:52:33;515.50;;;218.05;;
66400;SDS011;53211;45.040;38.788;2022-11-15T03:55:19;532.65;;;210.98;;
66400;SDS011;53211;45.040;38.788;2022-11-15T03:58:05;529.72;;;209.38;;
66400;SDS011;53211;45.040;38.788;2022-11-15T04:00:50;590.70;;;169.05;;
66400;SDS011;53211;45.040;38.788;2022-11-15T04:03:34;595.75;;;163.35;;
66400;SDS011;53211;45.040;38.788;2022-11-15T04:06:18;625.25;;;152.05;;
66400;SDS011;53211;45.040;38.788;2022-11-15T04:09:03;624.67;;;152.80;;
66400;SDS011;53211;45.040;38.788;2022-11-15T04:11:47;588.53;;;170.87;;
66400;SDS011;53211;45.040;38.788;2022-11-15T04:14:32;582.40;;;178.60;;
66400;SDS011;53211;45.040;38.788;2022-11-15T04:17:16;568.05;;;196.25;;
66400;SDS011;53211;45.040;38.788;2022-11-15T04:20:01;518.65;;;246.80;;
66400;SDS011;53211;45.040;38.788;2022-11-15T04:23:08;524.63;;;240.50;;
66400;SDS011;53211;45.040;38.788;2022-11-15T04:26:16;530.75;;;244.25;;
66400;SDS011;53211;45.040;38.788;2022-11-15T04:29:04;591.43;;;165.07;;
66400;SDS011;53211;45.040;38.788;2022-11-15T04:32:07;575.30;;;175.95;;
66400;SDS011;53211;45.040;38.788;2022-11-15T04:34:51;560.90;;;192.15;;
66400;SDS011;53211;45.040;38.788;2022-11-15T04:37:36;498.40;;;212.23;;
66400;SDS011;53211;45.040;38.788;2022-11-15T04:40:20;526.90;;;216.10;;
66400;SDS011;53211;45.040;38.788;2022-11-15T04:43:05;520.10;;;224.60;;
66400;SDS011;53211;45.040;38.788;2022-11-15T04:45:49;527.27;;;217.63;;
66400;SDS011;53211;45.040;38.788;2022-11-15T04:48:33;489.50;;;196.05;;
66400;SDS011;53211;45.040;38.788;2022-11-15T04:51:18;491.50;;;201.30;;
66400;SDS011;53211;45.040;38.788;2022-11-15T04:54:03;535.40;;;203.63;;
66400;SDS011;53211;45.040;38.788;2022-11-15T04:56:47;538.60;;;206.80;;
66400;SDS011;53211;45.040;38.788;2022-11-15T04:59:31;498.10;;;212.30;;
66400;SDS011;53211;45.040;38.788;2022-11-15T05:05:00;511.67;;;224.83;;
66400;SDS011;53211;45.040;38.788;2022-11-15T05:07:44;544.33;;;203.63;;
66400;SDS011;53211;45.040;38.788;2022-11-15T05:10:29;534.70;;;205.55;;
66400;SDS011;53211;45.040;38.788;2022-11-15T05:13:14;525.87;;;200.47;;
66400;SDS011;53211;45.040;38.788;2022-11-15T05:15:58;545.00;;;201.33;;
66400;SDS011;53211;45.040;38.788;2022-11-15T05:18:42;534.95;;;205.20;;
66400;SDS011;53211;45.040;38.788;2022-11-15T05:21:27;444.50;;;123.53;;
66400;SDS011;53211;45.040;38.788;2022-11-15T05:24:11;475.13;;;154.80;;
66400;SDS011;53211;45.040;38.788;2022-11-15T05:26:55;463.88;;;141.30;;
66400;SDS011;53211;45.040;38.788;2022-11-15T05:29:39;467.53;;;154.50;;
66400;SDS011;53211;45.040;38.788;2022-11-15T05:32:24;461.33;;;137.02;;
66400;SDS011;53211;45.040;38.788;2022-11-15T05:35:11;489.08;;;208.35;;
66400;SDS011;53211;45.040;38.788;2022-11-15T05:38:02;480.90;;;191.57;;
66400;SDS011;53211;45.040;38.788;2022-11-15T05:40:46;479.10;;;177.30;;
66400;SDS011;53211;45.040;38.788;2022-11-15T05:43:31;476.20;;;176.20;;
66400;SDS011;53211;45.040;38.788;2022-11-15T05:46:18;478.20;;;170.80;;
66400;SDS011;53211;45.040;38.788;2022-11-15T05:49:03;553.27;;;186.53;;
66400;SDS011;53211;45.040;38.788;2022-11-15T05:51:51;548.00;;;198.00;;
66400;SDS011;53211;45.040;38.788;2022-11-15T05:54:37;533.00;;;206.15;;
66400;SDS011;53211;45.040;38.788;2022-11-15T05:57:21;550.50;;;190.00;;
66400;SDS011;53211;45.040;38.788;2022-11-15T06:00:07;552.90;;;193.10;;
66400;SDS011;53211;45.040;38.788;2022-11-15T06:02:52;539.45;;;200.85;;
66400;SDS011;53211;45.040;38.788;2022-11-15T06:05:37;541.30;;;206.10;;
66400;SDS011;53211;45.040;38.788;2022-11-15T06:08:21;542.97;;;204.97;;
66400;SDS011;53211;45.040;38.788;2022-11-15T06:11:06;544.22;;;196.05;;
66400;SDS011;53211;45.040;38.788;2022-11-15T06:13:51;539.53;;;204.63;;
66400;SDS011;53211;45.040;38.788;2022-11-15T06:16:35;534.67;;;211.65;;
66400;SDS011;53211;45.040;38.788;2022-11-15T06:19:20;538.15;;;208.45;;
66400;SDS011;53211;45.040;38.788;2022-11-15T06:22:04;538.90;;;209.02;;
66400;SDS011;53211;45.040;38.788;2022-11-15T06:24:49;538.60;;;207.35;;
66400;SDS011;53211;45.040;38.788;2022-11-15T06:27:33;537.03;;;215.70;;
66400;SDS011;53211;45.040;38.788;2022-11-15T06:30:17;594.65;;;171.95;;
66400;SDS011;53211;45.040;38.788;2022-11-15T06:33:03;590.05;;;169.85;;
66400;SDS011;53211;45.040;38.788;2022-11-15T06:35:48;587.95;;;167.60;;
66400;SDS011;53211;45.040;38.788;2022-11-15T06:38:33;592.93;;;170.50;;
66400;SDS011;53211;45.040;38.788;2022-11-15T06:41:17;586.75;;;174.55;;
66400;SDS011;53211;45.040;38.788;2022-11-15T06:44:02;595.53;;;173.07;;
66400;SDS011;53211;45.040;38.788;2022-11-15T06:46:47;589.90;;;170.90;;
66400;SDS011;53211;45.040;38.788;2022-11-15T06:49:31;588.90;;;168.65;;
66400;SDS011;53211;45.040;38.788;2022-11-15T06:52:15;591.97;;;177.70;;
66400;SDS011;53211;45.040;38.788;2022-11-15T06:55:02;589.20;;;177.70;;
66400;SDS011;53211;45.040;38.788;2022-11-15T06:57:49;593.85;;;180.70;;
66400;SDS011;53211;45.040;38.788;2022-11-15T07:00:35;519.60;;;228.93;;
66400;SDS011;53211;45.040;38.788;2022-11-15T07:03:20;557.10;;;203.75;;
66400;SDS011;53211;45.040;38.788;2022-11-15T07:06:04;528.60;;;231.18;;
66400;SDS011;53211;45.040;38.788;2022-11-15T07:08:49;586.20;;;190.80;;
66400;SDS011;53211;45.040;38.788;2022-11-15T07:11:34;551.30;;;218.80;;
66400;SDS011;53211;45.040;38.788;2022-11-15T07:14:18;559.10;;;211.05;;
66400;SDS011;53211;45.040;38.788;2022-11-15T07:17:03;553.60;;;210.50;;
66400;SDS011;53211;45.040;38.788;2022-11-15T07:19:48;558.85;;;210.15;;
66400;SDS011;53211;45.040;38.788;2022-11-15T07:22:33;605.90;;;170.03;;
66400;SDS011;53211;45.040;38.788;2022-11-15T07:25:17;608.75;;;170.20;;
66400;SDS011;53211;45.040;38.788;2022-11-15T07:28:02;584.87;;;191.43;;
66400;SDS011;53211;45.040;38.788;2022-11-15T07:30:47;608.00;;;175.35;;
66400;SDS011;53211;45.040;38.788;2022-11-15T07:33:32;590.20;;;183.85;;
66400;SDS011;53211;45.040;38.788;2022-11-15T07:36:17;555.47;;;215.27;;
66400;SDS011;53211;45.040;38.788;2022-11-15T07:39:01;555.85;;;215.05;;
66400;SDS011;53211;45.040;38.788;2022-11-15T07:41:46;609.90;;;174.90;;
66400;SDS011;53211;45.040;38.788;2022-11-15T07:44:31;597.50;;;176.90;;
66400;SDS011;53211;45.040;38.788;2022-11-15T07:47:16;548.37;;;227.27;;
66400;SDS011;53211;45.040;38.788;2022-11-15T07:50:00;669.70;;;150.60;;
66400;SDS011;53211;45.040;38.788;2022-11-15T07:52:45;609.15;;;177.90;;
66400;SDS011;53211;45.040;38.788;2022-11-15T07:55:30;613.63;;;172.63;;
66400;SDS011;53211;45.040;38.788;2022-11-15T07:58:14;567.67;;;203.63;;
66400;SDS011;53211;45.040;38.788;2022-11-15T08:01:02;584.63;;;193.50;;
66400;SDS011;53211;45.040;38.788;2022-11-15T08:03:50;569.75;;;216.50;;
66400;SDS011;53211;45.040;38.788;2022-11-15T08:06:34;598.07;;;201.37;;
66400;SDS011;53211;45.040;38.788;2022-11-15T08:09:19;633.80;;;164.60;;
66400;SDS011;53211;45.040;38.788;2022-11-15T08:12:03;639.40;;;161.40;;
66400;SDS011;53211;45.040;38.788;2022-11-15T08:14:48;638.83;;;161.03;;
66400;SDS011;53211;45.040;38.788;2022-11-15T08:17:32;591.10;;;183.45;;
66400;SDS011;53211;45.040;38.788;2022-11-15T08:20:17;552.70;;;216.90;;
66400;SDS011;53211;45.040;38.788;2022-11-15T08:23:03;557.15;;;212.35;;
66400;SDS011;53211;45.040;38.788;2022-11-15T08:25:48;551.60;;;219.75;;
66400;SDS011;53211;45.040;38.788;2022-11-15T08:28:33;557.03;;;209.53;;
66400;SDS011;53211;45.040;38.788;2022-11-15T08:31:17;550.87;;;210.50;;
66400;SDS011;53211;45.040;38.788;2022-11-15T08:34:03;553.40;;;213.10;;
66400;SDS011;53211;45.040;38.788;2022-11-15T08:36:48;560.85;;;207.35;;
66400;SDS011;53211;45.040;38.788;2022-11-15T08:39:32;551.53;;;219.15;;
66400;SDS011;53211;45.040;38.788;2022-11-15T08:42:17;552.70;;;221.00;;
66400;SDS011;53211;45.040;38.788;2022-11-15T08:45:02;554.57;;;210.50;;
66400;SDS011;53211;45.040;38.788;2022-11-15T08:47:47;559.00;;;207.10;;
66400;SDS011;53211;45.040;38.788;2022-11-15T08:50:31;561.08;;;209.05;;
66400;SDS011;53211;45.040;38.788;2022-11-15T08:53:16;524.60;;;232.85;;
66400;SDS011;53211;45.040;38.788;2022-11-15T08:56:00;560.20;;;205.10;;
66400;SDS011;53211;45.040;38.788;2022-11-15T08:58:45;560.50;;;211.83;;
66400;SDS011;53211;45.040;38.788;2022-11-15T09:01:30;561.33;;;205.03;;
66400;SDS011;53211;45.040;38.788;2022-11-15T09:04:16;558.05;;;209.60;;
66400;SDS011;53211;45.040;38.788;2022-11-15T09:07:00;556.67;;;217.10;;
66400;SDS011;53211;45.040;38.788;2022-11-15T09:09:44;565.00;;;205.20;;
66400;SDS011;53211;45.040;38.788;2022-11-15T09:12:29;556.38;;;219.82;;
66400;SDS011;53211;45.040;38.788;2022-11-15T09:15:14;567.55;;;207.05;;
66400;SDS011;53211;45.040;38.788;2022-11-15T09:17:59;561.10;;;211.85;;
66400;SDS011;53211;45.040;38.788;2022-11-15T09:20:43;561.53;;;209.73;;
66400;SDS011;53211;45.040;38.788;2022-11-15T09:23:28;559.40;;;210.30;;
66400;SDS011;53211;45.040;38.788;2022-11-15T09:26:12;560.75;;;207.25;;
66400;SDS011;53211;45.040;38.788;2022-11-15T09:28:57;569.83;;;203.60;;
66400;SDS011;53211;45.040;38.788;2022-11-15T09:31:41;628.70;;;164.40;;
66400;SDS011;53211;45.040;38.788;2022-11-15T09:34:25;618.25;;;168.95;;
66400;SDS011;53211;45.040;38.788;2022-11-15T09:37:09;624.25;;;169.45;;
66400;SDS011;53211;45.040;38.788;2022-11-15T09:39:54;632.05;;;165.40;;
66400;SDS011;53211;45.040;38.788;2022-11-15T09:42:58;630.85;;;166.40;;
66400;SDS011;53211;45.040;38.788;2022-11-15T09:45:55;626.20;;;171.60;;
66400;SDS011;53211;45.040;38.788;2022-11-15T09:48:51;626.80;;;168.70;;
66400;SDS011;53211;45.040;38.788;2022-11-15T09:51:38;643.00;;;160.50;;
66400;SDS011;53211;45.040;38.788;2022-11-15T09:54:21;645.70;;;162.10;;
66400;SDS011;53211;45.040;38.788;2022-11-15T09:56:48;645.10;;;160.70;;
66400;SDS011;53211;45.040;38.788;2022-11-15T09:59:22;648.13;;;161.83;;
66400;SDS011;53211;45.040;38.788;2022-11-15T10:04:43;643.47;;;159.60;;
66400;SDS011;53211;45.040;38.788;2022-11-15T10:10:02;640.95;;;158.55;;
66400;SDS011;53211;45.040;38.788;2022-11-15T10:12:37;643.85;;;163.65;;
66400;SDS011;53211;45.040;38.788;2022-11-15T10:15:05;646.80;;;160.10;;
66400;SDS011;53211;45.040;38.788;2022-11-15T10:18:03;647.70;;;161.45;;
66400;SDS011;53211;45.040;38.788;2022-11-15T10:20:28;644.47;;;162.37;;
66400;SDS011;53211;45.040;38.788;2022-11-15T10:22:56;652.50;;;158.35;;
66400;SDS011;53211;45.040;38.788;2022-11-15T10:25:32;647.30;;;160.93;;
66400;SDS011;53211;45.040;38.788;2022-11-15T10:31:02;646.10;;;163.90;;
66400;SDS011;53211;45.040;38.788;2022-11-15T10:33:37;652.05;;;155.20;;
66400;SDS011;53211;45.040;38.788;2022-11-15T10:44:02;658.80;;;160.60;;
66400;SDS011;53211;45.040;38.788;2022-11-15T10:46:48;659.77;;;156.73;;
66400;SDS011;53211;45.040;38.788;2022-11-15T10:49:21;610.10;;;188.30;;
66400;SDS011;53211;45.040;38.788;2022-11-15T10:57:07;643.20;;;165.60;;
66400;SDS011;53211;45.040;38.788;2022-11-15T11:02:36;660.30;;;164.20;;
66400;SDS011;53211;45.040;38.788;2022-11-15T11:05:06;638.00;;;166.45;;
66400;SDS011;53211;45.040;38.788;2022-11-15T11:10:37;643.00;;;168.85;;
66400;SDS011;53211;45.040;38.788;2022-11-15T11:13:13;629.20;;;177.67;;
66400;SDS011;53211;45.040;38.788;2022-11-15T11:15:47;644.30;;;168.40;;
66400;SDS011;53211;45.040;38.788;2022-11-15T11:31:03;641.37;;;164.07;;
66400;SDS011;53211;45.040;38.788;2022-11-15T11:33:55;638.05;;;166.20;;
66400;SDS011;53211;45.040;38.788;2022-11-15T11:36:34;644.60;;;166.30;;
66400;SDS011;53211;45.040;38.788;2022-11-15T11:47:46;663.15;;;159.20;;
66400;SDS011;53211;45.040;38.788;2022-11-15T11:50:15;684.75;;;152.38;;
66400;SDS011;53211;45.040;38.788;2022-11-15T11:52:58;642.53;;;168.20;;
66400;SDS011;53211;45.040;38.788;2022-11-15T11:55:36;691.20;;;153.60;;
66400;SDS011;53211;45.040;38.788;2022-11-15T12:14:55;689.55;;;156.52;;
66400;SDS011;53211;45.040;38.788;2022-11-15T12:17:42;671.30;;;163.05;;
66400;SDS011;53211;45.040;38.788;2022-11-15T12:22:59;660.20;;;166.55;;
66400;SDS011;53211;45.040;38.788;2022-11-15T12:25:51;638.95;;;175.80;;
66400;SDS011;53211;45.040;38.788;2022-11-15T12:31:01;635.15;;;177.75;;
66400;SDS011;53211;45.040;38.788;2022-11-15T12:38:58;654.40;;;178.77;;
66400;SDS011;53211;45.040;38.788;2022-11-15T12:41:27;642.45;;;177.40;;
66400;SDS011;53211;45.040;38.788;2022-11-15T12:43:57;638.87;;;172.57;;
66400;SDS011;53211;45.040;38.788;2022-11-15T13:04:53;625.50;;;178.55;;
66400;SDS011;53211;45.040;38.788;2022-11-15T13:13:07;654.90;;;157.00;;
66400;SDS011;53211;45.040;38.788;2022-11-15T13:15:37;659.20;;;160.43;;
66400;SDS011;53211;45.040;38.788;2022-11-15T13:21:05;650.25;;;162.15;;
66400;SDS011;53211;45.040;38.788;2022-11-15T13:24:02;681.20;;;154.00;;
66400;SDS011;53211;45.040;38.788;2022-11-15T13:26:28;680.30;;;155.70;;
66400;SDS011;53211;45.040;38.788;2022-11-15T13:28:54;649.47;;;170.00;;
66400;SDS011;53211;45.040;38.788;2022-11-15T13:31:29;642.53;;;171.23;;
66400;SDS011;53211;45.040;38.788;2022-11-15T13:34:02;642.75;;;164.60;;
66400;SDS011;53211;45.040;38.788;2022-11-15T13:36:41;642.75;;;166.70;;
66400;SDS011;53211;45.040;38.788;2022-11-15T13:39:40;643.00;;;169.10;;
66400;SDS011;53211;45.040;38.788;2022-11-15T13:42:01;612.67;;;182.60;;
66400;SDS011;53211;45.040;38.788;2022-11-15T13:44:29;607.80;;;181.67;;
66400;SDS011;53211;45.040;38.788;2022-11-15T13:47:00;603.60;;;178.90;;
66400;SDS011;53211;45.040;38.788;2022-11-15T13:49:29;603.35;;;180.80;;
66400;SDS011;53211;45.040;38.788;2022-11-15T13:51:56;601.63;;;178.70;;
66400;SDS011;53211;45.040;38.788;2022-11-15T13:56:56;641.85;;;158.60;;
66400;SDS011;53211;45.040;38.788;2022-11-15T13:59:48;631.80;;;163.15;;
66400;SDS011;53211;45.040;38.788;2022-11-15T14:02:18;637.50;;;163.20;;
66400;SDS011;53211;45.040;38.788;2022-11-15T14:07:44;617.10;;;167.65;;
66400;SDS011;53211;45.040;38.788;2022-11-15T14:10:30;615.15;;;166.80;;
66400;SDS011;53211;45.040;38.788;2022-11-15T14:13:03;615.55;;;172.70;;
66400;SDS011;53211;45.040;38.788;2022-11-15T14:15:34;611.80;;;169.93;;
66400;SDS011;53211;45.040;38.788;2022-11-15T14:18:02;605.10;;;172.20;;
66400;SDS011;53211;45.040;38.788;2022-11-15T14:20:34;605.00;;;172.75;;
66400;SDS011;53211;45.040;38.788;2022-11-15T14:23:03;561.25;;;204.23;;
66400;SDS011;53211;45.040;38.788;2022-11-15T14:25:30;557.53;;;220.03;;
66400;SDS011;53211;45.040;38.788;2022-11-15T14:30:41;550.70;;;208.80;;
66400;SDS011;53211;45.040;38.788;2022-11-15T14:36:10;553.70;;;205.30;;
66400;SDS011;53211;45.040;38.788;2022-11-15T14:38:38;551.55;;;208.00;;
66400;SDS011;53211;45.040;38.788;2022-11-15T14:41:04;552.77;;;206.07;;
66400;SDS011;53211;45.040;38.788;2022-11-15T14:43:31;554.20;;;201.05;;
66400;SDS011;53211;45.040;38.788;2022-11-15T14:45:57;575.90;;;196.00;;
66400;SDS011;53211;45.040;38.788;2022-11-15T14:48:23;550.30;;;204.95;;
66400;SDS011;53211;45.040;38.788;2022-11-15T14:50:49;556.03;;;199.90;;
66400;SDS011;53211;45.040;38.788;2022-11-15T14:53:15;549.50;;;204.45;;
66400;SDS011;53211;45.040;38.788;2022-11-15T14:55:43;567.65;;;190.30;;
66400;SDS011;53211;45.040;38.788;2022-11-15T14:58:09;552.60;;;197.67;;
66400;SDS011;53211;45.040;38.788;2022-11-15T15:00:36;585.30;;;173.45;;
66400;SDS011;53211;45.040;38.788;2022-11-15T15:03:04;619.85;;;157.75;;
66400;SDS011;53211;45.040;38.788;2022-11-15T15:05:32;652.17;;;146.10;;
66400;SDS011;53211;45.040;38.788;2022-11-15T15:08:08;615.70;;;157.45;;
66400;SDS011;53211;45.040;38.788;2022-11-15T15:10:36;629.70;;;151.85;;
66400;SDS011;53211;45.040;38.788;2022-11-15T15:13:16;615.30;;;161.05;;
66400;SDS011;53211;45.040;38.788;2022-11-15T15:15:46;630.20;;;158.30;;
66400;SDS011;53211;45.040;38.788;2022-11-15T15:18:14;672.50;;;150.50;;
66400;SDS011;53211;45.040;38.788;2022-11-15T15:20:41;662.85;;;149.00;;
66400;SDS011;53211;45.040;38.788;2022-11-15T15:23:15;662.20;;;149.35;;
66400;SDS011;53211;45.040;38.788;2022-11-15T15:25:43;657.35;;;144.13;;
66400;SDS011;53211;45.040;38.788;2022-11-15T15:28:11;651.00;;;146.50;;
66400;SDS011;53211;45.040;38.788;2022-11-15T15:30:37;655.60;;;145.70;;
66400;SDS011;53211;45.040;38.788;2022-11-15T15:33:03;646.47;;;149.17;;
66400;SDS011;53211;45.040;38.788;2022-11-15T15:35:31;643.90;;;149.10;;
66400;SDS011;53211;45.040;38.788;2022-11-15T15:37:58;648.50;;;149.70;;
66400;SDS011;53211;45.040;38.788;2022-11-15T15:40:25;648.93;;;147.90;;
66400;SDS011;53211;45.040;38.788;2022-11-15T15:42:54;638.15;;;150.95;;
66400;SDS011;53211;45.040;38.788;2022-11-15T15:45:20;635.15;;;151.95;;
66400;SDS011;53211;45.040;38.788;2022-11-15T15:47:47;627.50;;;152.95;;
66400;SDS011;53211;45.040;38.788;2022-11-15T15:52:48;631.93;;;152.37;;
66400;SDS011;53211;45.040;38.788;2022-11-15T15:55:15;634.00;;;151.60;;
66400;SDS011;53211;45.040;38.788;2022-11-15T15:57:41;627.35;;;153.05;;
66400;SDS011;53211;45.040;38.788;2022-11-15T16:00:08;632.10;;;152.20;;
66400;SDS011;53211;45.040;38.788;2022-11-15T16:02:38;613.60;;;158.07;;
66400;SDS011;53211;45.040;38.788;2022-11-15T16:05:05;628.90;;;153.90;;
66400;SDS011;53211;45.040;38.788;2022-11-15T16:07:31;622.80;;;154.00;;
66400;SDS011;53211;45.040;38.788;2022-11-15T16:09:57;628.25;;;153.40;;
66400;SDS011;53211;45.040;38.788;2022-11-15T16:12:30;625.40;;;152.40;;
66400;SDS011;53211;45.040;38.788;2022-11-15T16:14:58;628.43;;;153.00;;
66400;SDS011;53211;45.040;38.788;2022-11-15T16:17:26;628.90;;;155.50;;
66400;SDS011;53211;45.040;38.788;2022-11-15T16:19:57;595.60;;;165.17;;
66400;SDS011;53211;45.040;38.788;2022-11-15T16:22:23;638.40;;;148.90;;
66400;SDS011;53211;45.040;38.788;2022-11-15T16:24:49;648.25;;;146.05;;
66400;SDS011;53211;45.040;38.788;2022-11-15T16:27:21;655.25;;;144.02;;
66400;SDS011;53211;45.040;38.788;2022-11-15T16:29:53;602.60;;;164.40;;
66400;SDS011;53211;45.040;38.788;2022-11-15T16:32:19;599.47;;;159.50;;
66400;SDS011;53211;45.040;38.788;2022-11-15T16:34:45;607.25;;;155.20;;
66400;SDS011;53211;45.040;38.788;2022-11-15T16:37:29;610.30;;;155.15;;
66400;SDS011;53211;45.040;38.788;2022-11-15T16:39:55;611.75;;;154.55;;
66400;SDS011;53211;45.040;38.788;2022-11-15T16:42:21;608.20;;;155.00;;
66400;SDS011;53211;45.040;38.788;2022-11-15T16:44:47;608.70;;;155.80;;
66400;SDS011;53211;45.040;38.788;2022-11-15T16:47:17;602.15;;;159.90;;
66400;SDS011;53211;45.040;38.788;2022-11-15T16:49:47;606.60;;;156.05;;
66400;SDS011;53211;45.040;38.788;2022-11-15T16:52:13;611.17;;;155.17;;
66400;SDS011;53211;45.040;38.788;2022-11-15T16:54:39;585.70;;;171.23;;
66400;SDS011;53211;45.040;38.788;2022-11-15T16:57:07;547.30;;;188.47;;
66400;SDS011;53211;45.040;38.788;2022-11-15T16:59:34;611.25;;;158.95;;
66400;SDS011;53211;45.040;38.788;2022-11-15T17:02:01;529.75;;;208.07;;
66400;SDS011;53211;45.040;38.788;2022-11-15T17:04:30;576.00;;;179.20;;
66400;SDS011;53211;45.040;38.788;2022-11-15T17:06:58;601.25;;;159.60;;
66400;SDS011;53211;45.040;38.788;2022-11-15T17:09:24;590.60;;;160.00;;
66400;SDS011;53211;45.040;38.788;2022-11-15T17:11:50;594.45;;;162.40;;
66400;SDS011;53211;45.040;38.788;2022-11-15T17:14:16;595.70;;;161.40;;
66400;SDS011;53211;45.040;38.788;2022-11-15T17:16:42;594.05;;;163.70;;
66400;SDS011;53211;45.040;38.788;2022-11-15T17:19:18;612.60;;;157.37;;
66400;SDS011;53211;45.040;38.788;2022-11-15T17:21:45;607.90;;;154.35;;
66400;SDS011;53211;45.040;38.788;2022-11-15T17:24:13;607.25;;;157.70;;
66400;SDS011;53211;45.040;38.788;2022-11-15T17:26:39;601.90;;;158.25;;
66400;SDS011;53211;45.040;38.788;2022-11-15T17:29:07;560.88;;;181.13;;
66400;SDS011;53211;45.040;38.788;2022-11-15T17:31:36;555.65;;;191.95;;
66400;SDS011;53211;45.040;38.788;2022-11-15T17:34:03;605.30;;;156.90;;
66400;SDS011;53211;45.040;38.788;2022-11-15T17:36:30;603.00;;;162.05;;